Time,TemperatureF,DewpointF,PressureIn,WindDirection,WindDirectionDegrees,WindSpeedMPH,WindSpeedGustMPH,Humidity,HourlyPrecipIn,Conditions,Clouds,dailyrainin,SoftwareType,DateUTC
2013-04-03 00:00:00,26.7,16.2,30.17,WNW,287,1.0,5.0,64,0.00,,---,0.00,VWS V14.01,2013-04-03 04:00:00,
2013-04-03 00:02:00,26.7,15.8,30.17,WNW,287,1.0,5.0,63,0.00,,---,0.00,VWS V14.01,2013-04-03 04:02:00,
2013-04-03 00:04:00,26.6,15.7,30.17,WNW,286,1.0,3.0,63,0.00,,---,0.00,VWS V14.01,2013-04-03 04:04:00,
2013-04-03 00:11:00,26.5,16.0,30.17,WNW,286,2.0,3.0,64,0.00,,---,0.00,VWS V14.01,2013-04-03 04:11:00,
2013-04-03 00:17:00,26.5,16.7,30.17,WNW,292,1.0,5.0,66,0.00,,---,0.00,VWS V14.01,2013-04-03 04:17:00,
2013-04-03 00:23:00,26.7,16.2,30.18,WNW,293,4.0,5.0,64,0.00,,---,0.00,VWS V14.01,2013-04-03 04:23:00,
2013-04-03 00:29:00,26.8,16.6,30.17,WNW,283,2.0,6.0,65,0.00,,---,0.00,VWS V14.01,2013-04-03 04:29:00,
2013-04-03 00:35:00,26.7,17.2,30.17,West,271,4.0,4.0,67,0.00,,---,0.00,VWS V14.01,2013-04-03 04:35:00,
2013-04-03 00:41:00,26.5,17.7,30.17,West,259,2.0,5.0,69,0.00,,---,0.00,VWS V14.01,2013-04-03 04:41:00,
2013-04-03 00:47:00,26.3,17.5,30.17,West,263,4.0,5.0,69,0.00,,---,0.00,VWS V14.01,2013-04-03 04:47:00,
2013-04-03 00:53:00,26.2,18.1,30.17,West,261,2.0,7.0,71,0.00,,---,0.00,VWS V14.01,2013-04-03 04:53:00,
2013-04-03 00:59:00,26.1,18.3,30.17,West,261,2.0,7.0,72,0.00,,---,0.00,VWS V14.01,2013-04-03 04:59:00,
2013-04-03 01:06:00,26.0,18.5,30.18,West,280,2.0,4.0,73,0.00,,---,0.00,VWS V14.01,2013-04-03 05:06:00,
2013-04-03 01:12:00,25.8,18.4,30.17,West,271,2.0,5.0,73,0.00,,---,0.00,VWS V14.01,2013-04-03 05:12:00,
2013-04-03 01:18:00,25.6,18.5,30.17,West,267,2.0,5.0,74,0.00,,---,0.00,VWS V14.01,2013-04-03 05:18:00,
2013-04-03 01:24:00,25.7,18.9,30.18,West,269,2.0,5.0,75,0.00,,---,0.00,VWS V14.01,2013-04-03 05:24:00,
2013-04-03 01:30:00,25.8,19.0,30.18,WNW,292,1.0,5.0,75,0.00,,---,0.00,VWS V14.01,2013-04-03 05:30:00,
2013-04-03 01:36:00,26.1,19.3,30.17,WNW,292,1.0,5.0,75,0.00,,---,0.00,VWS V14.01,2013-04-03 05:36:00,
2013-04-03 01:42:00,26.2,19.4,30.17,West,277,4.0,5.0,75,0.00,,---,0.00,VWS V14.01,2013-04-03 05:42:00,
2013-04-03 01:48:00,26.3,19.5,30.17,West,269,2.0,5.0,75,0.00,,---,0.00,VWS V14.01,2013-04-03 05:48:00,
2013-04-03 01:54:00,26.2,19.4,30.17,West,281,2.0,5.0,75,0.00,,---,0.00,VWS V14.01,2013-04-03 05:54:00,
2013-04-03 02:00:00,26.2,19.4,30.17,West,262,1.0,5.0,75,0.00,,---,0.00,VWS V14.01,2013-04-03 06:00:00,
2013-04-03 02:06:00,26.2,19.4,30.18,WSW,250,0.0,4.0,75,0.00,,---,0.00,VWS V14.01,2013-04-03 06:06:00,
2013-04-03 02:12:00,26.2,19.7,30.17,WSW,249,0.0,4.0,76,0.00,,---,0.00,VWS V14.01,2013-04-03 06:12:00,
2013-04-03 02:19:00,26.0,19.2,30.17,WSW,250,1.0,4.0,75,0.00,,---,0.00,VWS V14.01,2013-04-03 06:19:00,
2013-04-03 02:25:00,25.8,19.0,30.17,WSW,250,0.0,4.0,75,0.00,,---,0.00,VWS V14.01,2013-04-03 06:25:00,
2013-04-03 02:32:00,25.6,18.8,30.18,WSW,249,1.0,4.0,75,0.00,,---,0.00,VWS V14.01,2013-04-03 06:32:00,
2013-04-03 02:37:00,25.4,18.6,30.17,WSW,250,0.0,3.0,75,0.00,,---,0.00,VWS V14.01,2013-04-03 06:37:00,
2013-04-03 02:43:00,25.1,18.6,30.17,WSW,250,2.0,3.0,76,0.00,,---,0.00,VWS V14.01,2013-04-03 06:43:00,
2013-04-03 02:49:00,25.1,18.3,30.17,West,265,0.0,6.0,75,0.00,,---,0.00,VWS V14.01,2013-04-03 06:49:00,
2013-04-03 02:55:00,24.8,18.3,30.17,West,264,1.0,6.0,76,0.00,,---,0.00,VWS V14.01,2013-04-03 06:55:00,
2013-04-03 03:01:00,24.8,18.0,30.17,West,260,2.0,6.0,75,0.00,,---,0.00,VWS V14.01,2013-04-03 07:01:00,
2013-04-03 03:07:00,24.9,17.8,30.17,WNW,283,1.0,5.0,74,0.00,,---,0.00,VWS V14.01,2013-04-03 07:07:00,
2013-04-03 03:14:00,24.8,17.7,30.17,WNW,284,1.0,5.0,74,0.00,,---,0.00,VWS V14.01,2013-04-03 07:14:00,
2013-04-03 03:20:00,24.5,17.7,30.17,WNW,284,2.0,5.0,75,0.00,,---,0.00,VWS V14.01,2013-04-03 07:20:00,
2013-04-03 03:26:00,24.2,17.7,30.17,WNW,284,1.0,5.0,76,0.00,,---,0.00,VWS V14.01,2013-04-03 07:26:00,
2013-04-03 03:32:00,24.0,17.5,30.17,West,264,1.0,5.0,76,0.00,,---,0.00,VWS V14.01,2013-04-03 07:32:00,
2013-04-03 03:38:00,24.1,17.3,30.17,West,264,2.0,4.0,75,0.00,,---,0.00,VWS V14.01,2013-04-03 07:38:00,
2013-04-03 03:44:00,23.9,17.1,30.17,West,264,1.0,4.0,75,0.00,,---,0.00,VWS V14.01,2013-04-03 07:44:00,
2013-04-03 03:50:00,23.8,17.0,30.17,West,264,1.0,4.0,75,0.00,,---,0.00,VWS V14.01,2013-04-03 07:50:00,
2013-04-03 03:57:00,23.6,16.9,30.18,West,264,1.0,4.0,75,0.00,,---,0.00,VWS V14.01,2013-04-03 07:57:00,
2013-04-03 04:02:00,23.5,16.8,30.18,WSW,240,3.0,5.0,75,0.00,,---,0.00,VWS V14.01,2013-04-03 08:02:00,
2013-04-03 04:07:00,23.8,17.0,30.18,West,263,1.0,6.0,75,0.00,,---,0.00,VWS V14.01,2013-04-03 08:07:00,
2013-04-03 04:13:00,23.9,16.8,30.18,West,277,2.0,6.0,74,0.00,,---,0.00,VWS V14.01,2013-04-03 08:13:00,
2013-04-03 04:19:00,24.0,16.9,30.18,West,267,3.0,9.0,74,0.00,,---,0.00,VWS V14.01,2013-04-03 08:19:00,
2013-04-03 04:25:00,24.3,17.2,30.19,West,281,2.0,10.0,74,0.00,,---,0.00,VWS V14.01,2013-04-03 08:25:00,
2013-04-03 04:31:00,24.3,17.5,30.18,West,279,3.0,10.0,75,0.00,,---,0.00,VWS V14.01,2013-04-03 08:31:00,
2013-04-03 04:37:00,24.2,17.4,30.18,WNW,294,2.0,6.0,75,0.00,,---,0.00,VWS V14.01,2013-04-03 08:37:00,
2013-04-03 04:43:00,24.0,17.5,30.19,West,277,1.0,6.0,76,0.00,,---,0.00,VWS V14.01,2013-04-03 08:43:00,
2013-04-03 04:49:00,24.0,17.2,30.19,WNW,298,1.0,6.0,75,0.00,,---,0.00,VWS V14.01,2013-04-03 08:49:00,
2013-04-03 04:55:00,23.9,17.5,30.19,West,279,1.0,6.0,76,0.00,,---,0.00,VWS V14.01,2013-04-03 08:55:00,
2013-04-03 05:01:00,23.7,17.3,30.19,West,279,2.0,6.0,76,0.00,,---,0.00,VWS V14.01,2013-04-03 09:01:00,
2013-04-03 05:07:00,23.4,17.3,30.20,West,279,1.0,2.0,77,0.00,,---,0.00,VWS V14.01,2013-04-03 09:07:00,
2013-04-03 05:13:00,23.2,17.4,30.20,West,281,6.0,6.0,78,0.00,,---,0.00,VWS V14.01,2013-04-03 09:13:00,
2013-04-03 05:19:00,23.5,17.7,30.20,NW,306,1.0,7.0,78,0.00,,---,0.00,VWS V14.01,2013-04-03 09:19:00,
2013-04-03 05:25:00,23.5,17.4,30.20,West,276,0.0,7.0,77,0.00,,---,0.00,VWS V14.01,2013-04-03 09:25:00,
2013-04-03 05:32:00,23.5,17.7,30.20,West,276,1.0,7.0,78,0.00,,---,0.00,VWS V14.01,2013-04-03 09:32:00,
2013-04-03 05:38:00,23.4,17.6,30.20,West,276,3.0,3.0,78,0.00,,---,0.00,VWS V14.01,2013-04-03 09:38:00,
2013-04-03 05:44:00,23.3,17.5,30.21,West,276,0.0,3.0,78,0.00,,---,0.00,VWS V14.01,2013-04-03 09:44:00,
2013-04-03 05:50:00,23.1,17.6,30.21,West,276,0.0,3.0,79,0.00,,---,0.00,VWS V14.01,2013-04-03 09:50:00,
2013-04-03 05:56:00,23.1,17.9,30.21,WNW,286,1.0,3.0,80,0.00,,---,0.00,VWS V14.01,2013-04-03 09:56:00,
2013-04-03 06:02:00,23.2,18.0,30.21,WNW,284,3.0,5.0,80,0.00,,---,0.00,VWS V14.01,2013-04-03 10:02:00,
2013-04-03 06:08:00,23.2,18.0,30.21,West,276,1.0,3.0,80,0.00,,---,0.00,VWS V14.01,2013-04-03 10:08:00,
2013-04-03 06:14:00,23.3,17.5,30.21,WSW,253,4.0,7.0,78,0.00,,---,0.00,VWS V14.01,2013-04-03 10:14:00,
2013-04-03 06:20:00,23.6,16.9,30.22,NW,317,1.0,7.0,75,0.00,,---,0.00,VWS V14.01,2013-04-03 10:20:00,
2013-04-03 06:26:00,23.7,17.0,30.22,SW,235,1.0,7.0,75,0.00,,---,0.00,VWS V14.01,2013-04-03 10:26:00,
2013-04-03 06:32:00,23.7,16.3,30.22,West,273,2.0,7.0,73,0.00,,---,0.00,VWS V14.01,2013-04-03 10:32:00,
2013-04-03 06:38:00,23.9,15.9,30.23,NW,319,3.0,5.0,71,0.00,,---,0.00,VWS V14.01,2013-04-03 10:38:00,
2013-04-03 06:44:00,23.9,15.6,30.23,WNW,302,2.0,7.0,70,0.00,,---,0.00,VWS V14.01,2013-04-03 10:44:00,
2013-04-03 06:50:00,23.9,15.6,30.23,West,260,0.0,7.0,70,0.00,,---,0.00,VWS V14.01,2013-04-03 10:50:00,
2013-04-03 06:56:00,24.0,15.3,30.23,NW,311,3.0,7.0,69,0.00,,---,0.00,VWS V14.01,2013-04-03 10:56:00,
2013-04-03 07:02:00,23.9,15.2,30.23,WNW,286,5.0,9.0,69,0.00,,---,0.00,VWS V14.01,2013-04-03 11:02:00,
2013-04-03 07:09:00,23.9,15.2,30.24,WNW,302,0.0,9.0,69,0.00,,---,0.00,VWS V14.01,2013-04-03 11:09:00,
2013-04-03 07:15:00,23.9,14.9,30.24,WNW,296,1.0,9.0,68,0.00,,---,0.00,VWS V14.01,2013-04-03 11:15:00,
2013-04-03 07:21:00,23.8,15.1,30.24,WNW,294,4.0,9.0,69,0.00,,---,0.00,VWS V14.01,2013-04-03 11:21:00,
2013-04-03 07:27:00,23.9,14.9,30.24,West,280,2.0,9.0,68,0.00,,---,0.00,VWS V14.01,2013-04-03 11:27:00,
2013-04-03 07:33:00,23.9,14.6,30.24,West,273,3.0,3.0,67,0.00,,---,0.00,VWS V14.01,2013-04-03 11:33:00,
2013-04-03 07:39:00,24.0,15.0,30.24,WNW,284,3.0,6.0,68,0.00,,---,0.00,VWS V14.01,2013-04-03 11:39:00,
2013-04-03 07:45:00,24.2,14.8,30.24,WNW,288,2.0,6.0,67,0.00,,---,0.00,VWS V14.01,2013-04-03 11:45:00,
2013-04-03 07:53:00,24.2,14.1,30.25,West,268,5.0,12.0,65,0.00,,---,0.00,VWS V14.01,2013-04-03 11:53:00,
2013-04-03 07:59:00,24.2,14.5,30.24,NW,305,3.0,12.0,66,0.00,,---,0.00,VWS V14.01,2013-04-03 11:59:00,
2013-04-03 08:05:00,24.2,14.8,30.24,WNW,300,0.0,4.0,67,0.00,,---,0.00,VWS V14.01,2013-04-03 12:05:00,
2013-04-03 08:11:00,24.2,14.5,30.24,WSW,254,6.0,9.0,66,0.00,,---,0.00,VWS V14.01,2013-04-03 12:11:00,
2013-04-03 08:17:00,24.4,14.7,30.24,West,279,1.0,9.0,66,0.00,,---,0.00,VWS V14.01,2013-04-03 12:17:00,
2013-04-03 08:23:00,24.7,15.0,30.25,West,279,6.0,9.0,66,0.00,,---,0.00,VWS V14.01,2013-04-03 12:23:00,
2013-04-03 08:29:00,24.9,15.2,30.25,West,269,3.0,9.0,66,0.00,,---,0.00,VWS V14.01,2013-04-03 12:29:00,
2013-04-03 08:35:00,25.0,15.3,30.25,WSW,257,4.0,7.0,66,0.00,,---,0.00,VWS V14.01,2013-04-03 12:35:00,
2013-04-03 08:41:00,25.1,15.4,30.25,WNW,298,3.0,13.0,66,0.00,,---,0.00,VWS V14.01,2013-04-03 12:41:00,
2013-04-03 08:47:00,25.2,15.4,30.25,NW,321,3.0,13.0,66,0.00,,---,0.00,VWS V14.01,2013-04-03 12:47:00,
2013-04-03 08:53:00,25.6,15.8,30.25,West,280,3.0,13.0,66,0.00,,---,0.00,VWS V14.01,2013-04-03 12:53:00,
2013-04-03 08:59:00,26.0,15.9,30.25,West,265,12.0,13.0,65,0.00,,---,0.00,VWS V14.01,2013-04-03 12:59:00,
2013-04-03 09:06:00,25.8,15.3,30.25,NW,313,6.0,17.0,64,0.00,,---,0.00,VWS V14.01,2013-04-03 13:06:00,
2013-04-03 09:12:00,25.8,15.3,30.25,West,275,9.0,17.0,64,0.00,,---,0.00,VWS V14.01,2013-04-03 13:12:00,
2013-04-03 09:18:00,25.9,15.4,30.25,West,259,17.0,20.0,64,0.00,,---,0.00,VWS V14.01,2013-04-03 13:18:00,
2013-04-03 09:24:00,25.8,16.0,30.25,West,261,4.0,20.0,66,0.00,,---,0.00,VWS V14.01,2013-04-03 13:24:00,
2013-04-03 09:30:00,25.7,16.3,30.25,West,272,0.0,20.0,67,0.00,,---,0.00,VWS V14.01,2013-04-03 13:30:00,
2013-04-03 09:38:00,25.9,13.9,30.25,NW,325,7.0,18.0,60,0.00,,---,0.00,VWS V14.01,2013-04-03 13:38:00,
2013-04-03 09:44:00,26.2,14.6,30.25,West,272,2.0,18.0,61,0.00,,---,0.00,VWS V14.01,2013-04-03 13:44:00,
2013-04-03 09:50:00,26.7,14.7,30.25,West,279,7.0,18.0,60,0.00,,---,0.00,VWS V14.01,2013-04-03 13:50:00,
2013-04-03 09:56:00,26.7,15.1,30.25,NNE,15,10.0,18.0,61,0.00,,---,0.00,VWS V14.01,2013-04-03 13:56:00,
2013-04-03 10:02:00,26.3,14.7,30.25,NNW,344,5.0,19.0,61,0.00,,---,0.00,VWS V14.01,2013-04-03 14:02:00,
2013-04-03 10:08:00,26.2,14.6,30.26,West,261,2.0,19.0,61,0.00,,---,0.00,VWS V14.01,2013-04-03 14:08:00,
2013-04-03 10:14:00,26.7,13.9,30.26,West,270,2.0,19.0,58,0.00,,---,0.00,VWS V14.01,2013-04-03 14:14:00,
2013-04-03 10:20:00,27.5,14.7,30.26,North,355,3.0,19.0,58,0.00,,---,0.00,VWS V14.01,2013-04-03 14:20:00,
2013-04-03 10:26:00,27.7,14.1,30.26,West,271,14.0,22.0,56,0.00,,---,0.00,VWS V14.01,2013-04-03 14:26:00,
2013-04-03 10:32:00,27.6,14.4,30.26,WNW,291,11.0,22.0,57,0.00,,---,0.00,VWS V14.01,2013-04-03 14:32:00,
2013-04-03 10:38:00,27.8,13.8,30.27,NW,322,4.0,14.0,55,0.00,,---,0.00,VWS V14.01,2013-04-03 14:38:00,
2013-04-03 10:45:00,28.3,14.2,30.28,North,9,5.0,15.0,55,0.00,,---,0.00,VWS V14.01,2013-04-03 14:45:00,
2013-04-03 10:51:00,28.8,13.4,30.28,NW,306,15.0,20.0,52,0.00,,---,0.00,VWS V14.01,2013-04-03 14:51:00,
2013-04-03 10:57:00,28.7,14.2,30.28,West,278,9.0,20.0,54,0.00,,---,0.00,VWS V14.01,2013-04-03 14:57:00,
2013-04-03 11:03:00,28.8,13.8,30.28,NNE,12,6.0,7.0,53,0.00,,---,0.00,VWS V14.01,2013-04-03 15:03:00,
2013-04-03 11:09:00,28.5,13.1,30.28,NNE,18,7.0,16.0,52,0.00,,---,0.00,VWS V14.01,2013-04-03 15:09:00,
2013-04-03 11:15:00,28.8,14.3,30.28,WNW,298,6.0,16.0,54,0.00,,---,0.00,VWS V14.01,2013-04-03 15:15:00,
2013-04-03 11:23:00,29.0,14.9,30.29,West,271,9.0,19.0,55,0.00,,---,0.00,VWS V14.01,2013-04-03 15:23:00,
2013-04-03 11:29:00,29.4,15.2,30.29,North,11,6.0,19.0,55,0.00,,---,0.00,VWS V14.01,2013-04-03 15:29:00,
2013-04-03 11:35:00,29.5,13.6,30.28,WNW,292,4.0,20.0,51,0.00,,---,0.00,VWS V14.01,2013-04-03 15:35:00,
2013-04-03 11:41:00,29.9,14.9,30.28,West,277,3.0,20.0,53,0.00,,---,0.00,VWS V14.01,2013-04-03 15:41:00,
2013-04-03 11:48:00,30.1,14.6,30.29,West,277,13.0,20.0,52,0.00,,---,0.00,VWS V14.01,2013-04-03 15:48:00,
2013-04-03 11:54:00,29.2,14.6,30.29,NNE,19,11.0,20.0,54,0.00,,---,0.00,VWS V14.01,2013-04-03 15:54:00,
2013-04-03 12:02:00,30.1,14.6,30.30,WNW,288,9.0,20.0,52,0.00,,---,0.00,VWS V14.01,2013-04-03 16:02:00,
2013-04-03 12:08:00,29.5,14.1,30.29,North,360,13.0,19.0,52,0.00,,---,0.00,VWS V14.01,2013-04-03 16:08:00,
2013-04-03 12:14:00,29.3,14.3,30.30,West,277,6.0,27.0,53,0.00,,---,0.00,VWS V14.01,2013-04-03 16:14:00,
2013-04-03 12:20:00,29.3,14.3,30.30,West,273,13.0,27.0,53,0.00,,---,0.00,VWS V14.01,2013-04-03 16:20:00,
2013-04-03 12:27:00,28.8,14.7,30.31,WNW,302,11.0,27.0,55,0.00,,---,0.00,VWS V14.01,2013-04-03 16:27:00,
2013-04-03 12:32:00,28.6,14.9,30.30,WNW,298,6.0,27.0,56,0.00,,---,0.00,VWS V14.01,2013-04-03 16:32:00,
2013-04-03 12:37:00,28.8,14.7,30.31,WNW,296,11.0,19.0,55,0.00,,---,0.00,VWS V14.01,2013-04-03 16:37:00,
2013-04-03 12:43:00,28.4,14.7,30.30,WNW,296,6.0,19.0,56,0.00,,---,0.00,VWS V14.01,2013-04-03 16:43:00,
2013-04-03 12:49:00,28.9,15.6,30.30,NNW,344,4.0,21.0,57,0.00,,---,0.00,VWS V14.01,2013-04-03 16:49:00,
2013-04-03 12:55:00,30.0,14.5,30.30,WSW,248,6.0,21.0,52,0.00,,---,0.00,VWS V14.01,2013-04-03 16:55:00,
2013-04-03 13:01:00,29.6,14.6,30.30,WNW,292,5.0,24.0,53,0.00,,---,0.00,VWS V14.01,2013-04-03 17:01:00,
2013-04-03 13:07:00,29.2,13.3,30.30,North,360,8.0,24.0,51,0.00,,---,0.00,VWS V14.01,2013-04-03 17:07:00,
2013-04-03 13:15:00,28.9,13.1,30.30,North,9,7.0,24.0,51,0.00,,---,0.00,VWS V14.01,2013-04-03 17:15:00,
2013-04-03 13:22:00,30.1,14.2,30.30,West,281,16.0,24.0,51,0.00,,---,0.00,VWS V14.01,2013-04-03 17:22:00,
2013-04-03 13:28:00,29.0,13.1,30.31,NNW,331,6.0,24.0,51,0.00,,---,0.00,VWS V14.01,2013-04-03 17:28:00,
2013-04-03 13:34:00,28.7,13.3,30.31,SSW,202,4.0,16.0,52,0.00,,---,0.00,VWS V14.01,2013-04-03 17:34:00,
2013-04-03 13:40:00,28.3,12.9,30.32,NE,54,3.0,21.0,52,0.00,,---,0.00,VWS V14.01,2013-04-03 17:40:00,
2013-04-03 13:46:00,29.9,14.9,30.32,West,269,21.0,22.0,53,0.00,,---,0.00,VWS V14.01,2013-04-03 17:46:00,
2013-04-03 13:52:00,29.8,13.9,30.32,West,274,19.0,26.0,51,0.00,,---,0.00,VWS V14.01,2013-04-03 17:52:00,
2013-04-03 13:58:00,28.8,13.0,30.33,NNE,19,6.0,26.0,51,0.00,,---,0.00,VWS V14.01,2013-04-03 17:58:00,
2013-04-03 14:04:00,28.3,12.9,30.33,North,9,12.0,19.0,52,0.00,,---,0.00,VWS V14.01,2013-04-03 18:04:00,
2013-04-03 14:10:00,28.8,13.0,30.33,NNE,12,8.0,19.0,51,0.00,,---,0.00,VWS V14.01,2013-04-03 18:10:00,
2013-04-03 14:16:00,29.1,13.7,30.33,WNW,284,3.0,23.0,52,0.00,,---,0.00,VWS V14.01,2013-04-03 18:16:00,
2013-04-03 14:23:00,28.4,14.7,30.33,North,360,5.0,23.0,56,0.00,,---,0.00,VWS V14.01,2013-04-03 18:23:00,
2013-04-03 14:29:00,28.8,15.9,30.34,West,281,7.0,23.0,58,0.00,,---,0.00,VWS V14.01,2013-04-03 18:29:00,
2013-04-03 14:35:00,29.2,15.9,30.33,West,271,18.0,18.0,57,0.00,,---,0.00,VWS V14.01,2013-04-03 18:35:00,
2013-04-03 14:45:00,30.6,17.2,30.34,NW,310,5.0,25.0,57,0.00,,---,0.00,VWS V14.01,2013-04-03 18:45:00,
2013-04-03 14:52:00,30.5,15.4,30.34,West,263,5.0,25.0,53,0.00,,---,0.00,VWS V14.01,2013-04-03 18:52:00,
2013-04-03 14:58:00,28.8,15.1,30.34,WNW,290,11.0,25.0,56,0.00,,---,0.00,VWS V14.01,2013-04-03 18:58:00,
2013-04-03 15:04:00,28.0,16.7,30.34,NNE,13,6.0,9.0,62,0.00,,---,0.00,VWS V14.01,2013-04-03 19:04:00,
2013-04-03 15:10:00,28.7,17.7,30.35,NNE,14,6.0,10.0,63,0.00,,---,0.00,VWS V14.01,2013-04-03 19:10:00,
2013-04-03 15:16:00,30.2,16.4,30.34,NNW,331,4.0,10.0,56,0.00,,---,0.00,VWS V14.01,2013-04-03 19:16:00,
2013-04-03 15:22:00,28.0,17.4,30.36,WNW,287,11.0,23.0,64,0.00,,---,0.00,VWS V14.01,2013-04-03 19:22:00,
2013-04-03 15:29:00,28.0,18.5,30.36,WNW,286,6.0,23.0,67,0.00,,---,0.00,VWS V14.01,2013-04-03 19:29:00,
2013-04-03 15:35:00,28.8,17.4,30.35,NE,40,7.0,15.0,62,0.00,,---,0.00,VWS V14.01,2013-04-03 19:35:00,
2013-04-03 15:41:00,29.4,18.0,30.35,WNW,283,6.0,15.0,62,0.00,,---,0.00,VWS V14.01,2013-04-03 19:41:00,
2013-04-03 15:47:00,28.6,15.7,30.35,West,271,14.0,22.0,58,0.00,,---,0.00,VWS V14.01,2013-04-03 19:47:00,
2013-04-03 15:53:00,28.2,17.2,30.35,West,281,5.0,22.0,63,0.00,,---,0.00,VWS V14.01,2013-04-03 19:53:00,
2013-04-03 15:59:00,29.4,16.9,30.34,NNE,17,6.0,22.0,59,0.00,,---,0.00,VWS V14.01,2013-04-03 19:59:00,
2013-04-03 16:05:00,29.8,17.2,30.34,West,280,5.0,11.0,59,0.00,,---,0.00,VWS V14.01,2013-04-03 20:05:00,
2013-04-03 16:12:00,29.4,17.6,30.35,NNE,26,12.0,18.0,61,0.00,,---,0.00,VWS V14.01,2013-04-03 20:12:00,
2013-04-03 16:18:00,29.0,18.0,30.35,NNW,327,6.0,18.0,63,0.00,,---,0.00,VWS V14.01,2013-04-03 20:18:00,
2013-04-03 16:24:00,29.8,16.8,30.35,NNE,28,5.0,18.0,58,0.00,,---,0.00,VWS V14.01,2013-04-03 20:24:00,
2013-04-03 16:30:00,28.8,15.9,30.35,WNW,286,3.0,22.0,58,0.00,,---,0.00,VWS V14.01,2013-04-03 20:30:00,
2013-04-03 16:36:00,29.0,15.7,30.35,North,11,4.0,15.0,57,0.00,,---,0.00,VWS V14.01,2013-04-03 20:36:00,
2013-04-03 16:42:00,27.9,15.1,30.35,NNE,26,7.0,18.0,58,0.00,,---,0.00,VWS V14.01,2013-04-03 20:42:00,
2013-04-03 16:48:00,29.1,16.6,30.35,NW,304,4.0,18.0,59,0.00,,---,0.00,VWS V14.01,2013-04-03 20:48:00,
2013-04-03 16:54:00,29.5,15.8,30.36,West,273,11.0,18.0,56,0.00,,---,0.00,VWS V14.01,2013-04-03 20:54:00,
2013-04-03 17:00:00,28.9,14.4,30.36,WNW,292,3.0,18.0,54,0.00,,---,0.00,VWS V14.01,2013-04-03 21:00:00,
2013-04-03 17:07:00,29.3,14.3,30.36,WSW,252,7.0,8.0,53,0.00,,---,0.00,VWS V14.01,2013-04-03 21:07:00,
2013-04-03 17:13:00,29.1,14.1,30.36,NE,34,6.0,15.0,53,0.00,,---,0.00,VWS V14.01,2013-04-03 21:13:00,
2013-04-03 17:19:00,28.7,13.8,30.36,NW,313,2.0,15.0,53,0.00,,---,0.00,VWS V14.01,2013-04-03 21:19:00,
2013-04-03 17:25:00,29.1,14.5,30.36,West,279,3.0,15.0,54,0.00,,---,0.00,VWS V14.01,2013-04-03 21:25:00,
2013-04-03 17:31:00,28.8,13.8,30.37,North,355,4.0,15.0,53,0.00,,---,0.00,VWS V14.01,2013-04-03 21:31:00,
2013-04-03 17:37:00,28.7,14.6,30.37,West,280,5.0,9.0,55,0.00,,---,0.00,VWS V14.01,2013-04-03 21:37:00,
2013-04-03 17:46:00,30.1,15.5,30.37,North,360,6.0,9.0,54,0.00,,---,0.00,VWS V14.01,2013-04-03 21:46:00,
2013-04-03 17:52:00,31.0,15.9,30.38,WNW,287,4.0,9.0,53,0.00,,---,0.00,VWS V14.01,2013-04-03 21:52:00,
2013-04-03 17:58:00,30.3,14.8,30.38,WSW,248,4.0,14.0,52,0.00,,---,0.00,VWS V14.01,2013-04-03 21:58:00,
2013-04-03 18:04:00,29.4,14.4,30.39,West,259,6.0,16.0,53,0.00,,---,0.00,VWS V14.01,2013-04-03 22:04:00,
2013-04-03 18:10:00,28.5,14.8,30.39,WSW,246,9.0,16.0,56,0.00,,---,0.00,VWS V14.01,2013-04-03 22:10:00,
2013-04-03 18:16:00,28.1,14.8,30.40,WNW,283,2.0,16.0,57,0.00,,---,0.00,VWS V14.01,2013-04-03 22:16:00,
2013-04-03 18:22:00,28.3,15.0,30.40,West,275,2.0,16.0,57,0.00,,---,0.00,VWS V14.01,2013-04-03 22:22:00,
2013-04-03 18:28:00,28.8,15.9,30.39,WSW,250,6.0,16.0,58,0.00,,---,0.00,VWS V14.01,2013-04-03 22:28:00,
2013-04-03 18:34:00,28.3,13.8,30.40,West,269,3.0,12.0,54,0.00,,---,0.00,VWS V14.01,2013-04-03 22:34:00,
2013-04-03 18:40:00,28.0,13.5,30.40,NNE,24,12.0,17.0,54,0.00,,---,0.00,VWS V14.01,2013-04-03 22:40:00,
2013-04-03 18:46:00,27.7,13.2,30.41,NW,317,2.0,17.0,54,0.00,,---,0.00,VWS V14.01,2013-04-03 22:46:00,
2013-04-03 18:53:00,27.7,14.1,30.41,NW,306,3.0,17.0,56,0.00,,---,0.00,VWS V14.01,2013-04-03 22:53:00,
2013-04-03 19:01:00,28.0,14.3,30.41,West,275,9.0,17.0,56,0.00,,---,0.00,VWS V14.01,2013-04-03 23:01:00,
2013-04-03 19:07:00,27.9,14.2,30.41,North,360,6.0,10.0,56,0.00,,---,0.00,VWS V14.01,2013-04-03 23:07:00,
2013-04-03 19:13:00,28.0,14.3,30.42,WSW,250,4.0,10.0,56,0.00,,---,0.00,VWS V14.01,2013-04-03 23:13:00,
2013-04-03 19:19:00,27.8,14.2,30.42,West,262,4.0,10.0,56,0.00,,---,0.00,VWS V14.01,2013-04-03 23:19:00,
2013-04-03 19:25:00,27.8,14.2,30.42,WNW,283,5.0,10.0,56,0.00,,---,0.00,VWS V14.01,2013-04-03 23:25:00,
2013-04-03 19:31:00,27.3,13.3,30.43,WSW,246,4.0,12.0,55,0.00,,---,0.00,VWS V14.01,2013-04-03 23:31:00,
2013-04-03 19:37:00,27.1,13.5,30.43,West,275,2.0,11.0,56,0.00,,---,0.00,VWS V14.01,2013-04-03 23:37:00,
2013-04-03 19:44:00,26.8,13.2,30.43,WSW,253,6.0,11.0,56,0.00,,---,0.00,VWS V14.01,2013-04-03 23:44:00,
2013-04-03 19:50:00,26.5,12.5,30.42,NNE,17,10.0,18.0,55,0.00,,---,0.00,VWS V14.01,2013-04-03 23:50:00,
2013-04-03 19:56:00,26.3,13.1,30.42,WNW,300,4.0,18.0,57,0.00,,---,0.00,VWS V14.01,2013-04-03 23:56:00,
2013-04-03 20:02:00,26.2,13.1,30.42,West,271,2.0,18.0,57,0.00,,---,0.00,VWS V14.01,2013-04-04 00:02:00,
2013-04-03 20:08:00,26.0,12.9,30.42,West,281,4.0,12.0,57,0.00,,---,0.00,VWS V14.01,2013-04-04 00:08:00,
2013-04-03 20:14:00,25.8,13.1,30.42,WNW,287,3.0,12.0,58,0.00,,---,0.00,VWS V14.01,2013-04-04 00:14:00,
2013-04-03 20:20:00,25.7,13.4,30.43,West,279,4.0,12.0,59,0.00,,---,0.00,VWS V14.01,2013-04-04 00:20:00,
2013-04-03 20:26:00,25.5,13.2,30.42,WNW,294,1.0,12.0,59,0.00,,---,0.00,VWS V14.01,2013-04-04 00:26:00,
2013-04-03 20:32:00,25.3,13.0,30.42,WSW,246,0.0,12.0,59,0.00,,---,0.00,VWS V14.01,2013-04-04 00:32:00,
2013-04-03 20:39:00,25.2,13.3,30.43,West,267,6.0,9.0,60,0.00,,---,0.00,VWS V14.01,2013-04-04 00:39:00,
2013-04-03 20:45:00,25.1,13.6,30.43,West,261,1.0,9.0,61,0.00,,---,0.00,VWS V14.01,2013-04-04 00:45:00,
2013-04-03 20:53:00,24.9,13.7,30.43,West,265,3.0,9.0,62,0.00,,---,0.00,VWS V14.01,2013-04-04 00:53:00,
2013-04-03 20:59:00,24.7,13.9,30.43,West,269,0.0,9.0,63,0.00,,---,0.00,VWS V14.01,2013-04-04 00:59:00,
2013-04-03 21:05:00,24.6,13.8,30.43,West,269,3.0,4.0,63,0.00,,---,0.00,VWS V14.01,2013-04-04 01:05:00,
2013-04-03 21:11:00,24.5,13.7,30.43,WNW,288,3.0,5.0,63,0.00,,---,0.00,VWS V14.01,2013-04-04 01:11:00,
2013-04-03 21:17:00,24.4,14.0,30.43,West,273,5.0,5.0,64,0.00,,---,0.00,VWS V14.01,2013-04-04 01:17:00,
2013-04-03 21:26:00,24.3,13.9,30.42,NW,316,0.0,5.0,64,0.00,,---,0.00,VWS V14.01,2013-04-04 01:26:00,
2013-04-03 21:32:00,24.0,13.6,30.42,West,271,0.0,5.0,64,0.00,,---,0.00,VWS V14.01,2013-04-04 01:32:00,
2013-04-03 21:38:00,24.0,13.6,30.42,NNW,342,1.0,3.0,64,0.00,,---,0.00,VWS V14.01,2013-04-04 01:38:00,
2013-04-03 21:46:00,23.8,13.8,30.42,NNW,336,0.0,3.0,65,0.00,,---,0.00,VWS V14.01,2013-04-04 01:46:00,
2013-04-03 21:52:00,23.8,13.8,30.42,NNW,344,0.0,3.0,65,0.00,,---,0.00,VWS V14.01,2013-04-04 01:52:00,
2013-04-03 21:58:00,23.7,13.7,30.42,NNW,327,0.0,3.0,65,0.00,,---,0.00,VWS V14.01,2013-04-04 01:58:00,
2013-04-03 22:04:00,23.5,13.5,30.43,NNW,327,0.0,0.0,65,0.00,,---,0.00,VWS V14.01,2013-04-04 02:04:00,
2013-04-03 22:10:00,23.3,13.6,30.42,NNW,327,0.0,1.0,66,0.00,,---,0.00,VWS V14.01,2013-04-04 02:10:00,
2013-04-03 22:17:00,23.1,13.4,30.42,NNW,327,0.0,1.0,66,0.00,,---,0.00,VWS V14.01,2013-04-04 02:17:00,
2013-04-03 22:23:00,23.0,15.6,30.41,NNW,327,0.0,1.0,73,0.00,,---,0.00,VWS V14.01,2013-04-04 02:23:00,
2013-04-03 22:29:00,22.7,13.7,30.41,NNW,327,1.0,1.0,68,0.00,,---,0.00,VWS V14.01,2013-04-04 02:29:00,
2013-04-03 22:35:00,22.6,14.0,30.39,East,84,1.0,2.0,69,0.00,,---,0.00,VWS V14.01,2013-04-04 02:35:00,
2013-04-03 22:41:00,22.5,13.9,30.39,East,84,0.0,2.0,69,0.00,,---,0.00,VWS V14.01,2013-04-04 02:41:00,
2013-04-03 22:48:00,22.4,14.1,30.39,East,84,0.0,2.0,70,0.00,,---,0.00,VWS V14.01,2013-04-04 02:48:00,
2013-04-03 22:54:00,22.3,14.0,30.39,East,84,0.0,2.0,70,0.00,,---,0.00,VWS V14.01,2013-04-04 02:54:00,
2013-04-03 23:00:00,22.2,14.2,30.39,East,84,0.0,2.0,71,0.00,,---,0.00,VWS V14.01,2013-04-04 03:00:00,
2013-04-03 23:08:00,21.8,14.5,30.39,East,84,0.0,0.0,73,0.00,,---,0.00,VWS V14.01,2013-04-04 03:08:00,
2013-04-03 23:14:00,21.6,14.3,30.39,East,84,0.0,1.0,73,0.00,,---,0.00,VWS V14.01,2013-04-04 03:14:00,
2013-04-03 23:20:00,21.3,14.0,30.38,East,83,0.0,1.0,73,0.00,,---,0.00,VWS V14.01,2013-04-04 03:20:00,
2013-04-03 23:26:00,21.0,13.7,30.38,East,84,0.0,1.0,73,0.00,,---,0.00,VWS V14.01,2013-04-04 03:26:00,
2013-04-03 23:32:00,20.7,13.7,30.37,East,84,1.0,1.0,74,0.00,,---,0.00,VWS V14.01,2013-04-04 03:32:00,
2013-04-03 23:40:00,20.5,13.9,30.37,East,83,0.0,2.0,75,0.00,,---,0.00,VWS V14.01,2013-04-04 03:40:00,
2013-04-03 23:47:00,20.4,13.8,30.37,East,84,0.0,2.0,75,0.00,,---,0.00,VWS V14.01,2013-04-04 03:47:00,
2013-04-03 23:53:00,20.4,14.1,30.36,East,84,0.0,2.0,76,0.00,,---,0.00,VWS V14.01,2013-04-04 03:53:00,
2013-04-03 23:59:00,20.3,14.3,30.36,East,84,0.0,2.0,77,0.00,,---,0.00,VWS V14.01,2013-04-04 03:59:00,